今日のアクセス数

    岡山グライダークラブ活動状況掲示板

岡山グライダークラブ
岡山市浦安南町639-1 岡南飛行場
 使用機:シャイベ式 SF25C型 ファルケ   JA2330
      ヴァレンティン式17E型 タイフーン  JA2342
 練習日:毎日曜日  クラブルーム:電話 086-265-1810
この掲示板は岡山グライダークラブの活動状況をお知らせする掲示板です。
!!!この掲示板は投稿規制をしています。!!!
クラブ関連各種情報は 岡山グライダークラブクラブルーム      を       .
  ブリーフイング情報は  岡山グライダークラブブリーフィングルーム  をご覧下さい。 .
※写真はクリックすると拡大して見ることが出来ます。
岡南飛行場へのアクセス等は 岡南飛行場管理事務所 をご覧ください。
クラブの ホームページ ができました。

ページ 1 (1〜10)ホームページへ戻る

05月19日
by OGC at 2024/5/19(日) 16:51:58 No.20240519164938 コメント】  削除 引用
800 x 600 x 99,705バイト
No.1

05月19日
本日の参加者
  会員      14名
  その他     00名


@本日の様子






METAR
RJBK 190000Z VRB03KT 20KM -RA FEW030CU BKN080AC BKN140AC 29/14 Q1018 A3008
RJOB 190000Z 08008KT 9999 FEW030 BKN130 BKN/// 17/12 Q1019
RJOT 190000Z 15003KT 060V210 9999 -RA FEW030 SCT080 BKN120 19/10 Q1019
RJOA 190000Z 05005KT CAVOK 18/08 Q1018

TAF
RJOB 182305Z 1900/2006 08006KT 9999 -RA FEW025 SCT045
     TEMPO 1909/1912 4000 -RA BR
     TEMPO 1912/1918 4000 -SHRA BR FEW003 BKN008 BKN015
     BECMG 1918/1921 21009KT
RJOT 182305Z 1900/2006 08008KT 9999 -RA FEW030 BKN045
     TEMPO 1909/1918 2000 SHRA BR BCFG FEW000 BKN005 BKN008
     BECMG 1912/1915 27008KT
RJOA 182305Z 1900/2006 08006KT 9999 FEW020 SCT045
     BECMG 1915/1918 32004KT
   

本日の岡山県はギリギリ雨雲がかからず無事にフライトすることができました。


解散    17:00

1番機  11:50離陸 撤収機  16:15着陸

SF25C JA2330 ファルケ     05Flt.3h05min  
SF25C JA225C ファルケ     07Flt.2h25min
17E   JA2342 タイフーン    00Flt.0h00min
合計                    12Flt.5h30min
05月12日
by OGC at 2024/5/12(日) 12:49:46 No.20240512124828 コメント】  削除 引用
800 x 600 x 98,587バイト
No.1

05月12日
本日の参加者
  会員      11名
  その他     01名


@本日の様子






METAR
RJBK 120000Z 06005KT 030V100 25KM -RA FEW010CU SCT045SC BKN060SC 20/18 Q1014 A2995
RJOB 120000Z 08004KT 9999 -RA PRFG FEW000 BKN050 18/17 Q1014
RJOT 120000Z VRB01KT 9999 -RA FEW015 SCT050 BKN070 20/17 Q1014
RJOA 120000Z VRB02KT 9999 FEW002 BKN040 BKN060 17/14 Q1014

TAF
RJOB 112308Z 1200/1306 10006KT 8000 -SHRA FEW005 SCT010 BKN020
     TEMPO 1201/1206 4000 SHRA BR
     TEMPO 1206/1209 4000 SHRA BR BCFG FEW000 SCT002 BKN005
     BECMG 1209/1211 FEW001 SCT005 BKN008
     TEMPO 1211/1218 1500 SHRA BR BCFG FEW000 SCT001 BKN003
     BECMG 1218/1221 FEW015 SCT025
RJOT 112309Z 1200/1306 03005KT 9000 -SHRA FEW015 BKN035
     BECMG 1212/1215 26006KT
     TEMPO 1212/1215 4000 SHRA BR FEW001 SCT005 BKN008
     TEMPO 1215/1221 1500 -SHRA BR BCFG FEW000 SCT003 BKN005
     BECMG 1300/1303 01005KT
RJOA 112309Z 1200/1306 12005KT 7000 -SHRA FEW003 SCT008 BKN015
     TEMPO 1200/1203 4000 -SHRA BR BCFG FEW000 SCT005 BKN008
     BECMG 1203/1205 3000 -SHRA BR BCFG FEW000 SCT003 BKN007
     TEMPO 1205/1209 1500 SHRA BR BCFG FEW000 SCT002 BKN004
     TEMPO 1209/1215 0700 SHRA FG FEW000 SCT001 BKN003
     BECMG 1215/1218 34010KT 9999 NSW FEW005 SCT045
 

本日は午後から雨。
降水が始まる前に訓練生のフライトをすべて行うことができました。

本日から2機運用になりました。来週からたくさん飛び回れそうです。


解散    14:00

1番機  11:05離陸 撤収機  12:10着陸

SF25C JA2330 ファルケ     03Flt.0h25min  
SF25C JA225C ファルケ     00Flt.0h00min
17E   JA2342 タイフーン    00Flt.0h00min
合計                    03Flt.0h25min

04月28日
by OGC at 2024/4/29(月) 00:05:20 No.20240428234857 コメント】  削除 引用
1024 x 768 x 108,843バイト
No.1

04月28日
本日の参加者
  会員      15名
  その他     00名


@本日の様子






METAR
RJBK 280000Z VRB02KT 20KM SKC 19/15 Q1015 A2999
RJOB 280000Z VRB04KT CAVOK 20/16 Q1015
RJOT 280000Z 01004KT 330V050 9999 FEW030 20/16 Q1015
RJOA 280000Z VRB02KT 9999 FEW010 BKN/// 19/14 Q1016
TAF
RJOB 272306Z 2800/2906 14006KT 9999 FEW030
     TEMPO 2903/2906 3000 RA BR FEW002 BKN008 BKN015
RJOT 272305Z 2800/2906 05006KT 9999 FEW025 SCT045
     BECMG 2808/2810 20005KT
     BECMG 2821/2900 05004KT
     TEMPO 2900/2906 3000 RA BR BCFG FEW000 SCT003 BKN005
RJOA 272305Z 2800/2906 12005KT 9999 FEW030 SCT045
     BECMG 2808/2810 28005KT
     TEMPO 2818/2900 3500 BR BCFG FEW000 SCT003 BKN005
     BECMG 2821/2900 10006KT
     TEMPO 2900/2906 2500 RA BR BCFG FEW000 SCT002 BKN003
 

本日は朝、靄で視程が悪い状態で湿度が高く、サーマルを期待していましたが、
期待を裏切られ、沈下の少ない穏やかな一日でした。
JA2330の整備も完了し、来週からは2機体制かな?


解散    18:30

1番機  10:40離陸 撤収機  18:00着陸

SF25C JA2330 ファルケ     02Flt.0h35min  
SF25C JA225C ファルケ     08Flt.3h05min
17E   JA2342 タイフーン    00Flt.0h00min
合計                    05Flt.3h40min
04月21日
by OGC at 2024/4/21(日) 14:39:56 No.20240421143912 コメント】  削除 引用
1200 x 900 x 201,020バイト <この画像は大きいので別画面で表示します>
No.1

04月21日
本日の参加者
  会員      15名
  その他     00名


@本日の様子






METAR
RJBK 210000Z VRB01KT 15KM FEW020CU SCT030CU BKN040CU 16/13 Q1012 A2990
RJOB 210000Z VRB02KT 6000 -RA FEW005 SCT010 BKN020 14/12 Q1012
RJOT 210000Z VRB01KT 5000 -RA BR FEW002 SCT015 BKN045 14/14 Q1012
RJOA 210000Z 07007KT 3000 -RA BCFG BR FEW000 SCT008 BKN015 13/12 Q1012

TAF
RJOB 202306Z 2100/2206 06005KT 7000 -SHRA FEW003 SCT010 BKN020
     TEMPO 2102/2111 3000 -SHRA BR BCFG FEW000 SCT003 BKN008
     TEMPO 2111/2118 4000 BR BCFG FEW000 SCT003 BKN008
     TEMPO 2118/2200 3000 BR BCFG FEW000 SCT003 BKN008
RJOT 202317Z 2100/2206 02005KT 9000 -RA FEW008 SCT015 BKN030
     TEMPO 2104/2111 3000 -SHRA BR FEW001 SCT005 BKN008
     TEMPO 2111/2118 4000 BR FEW001 SCT005 BKN008
     BECMG 2112/2115 30004KT
RJOA 202317Z 2100/2206 12004KT 6000 -SHRA FEW003 SCT010 BKN015
     TEMPO 2100/2103 4000 -RA BR BCFG FEW000 SCT003 BKN008
     BECMG 2103/2105 22005KT
     TEMPO 2103/2112 3000 -SHRA BR BCFG FEW000 SCT003 BKN008
     TEMPO 2112/2121 4000 BR BCFG FEW000 SCT003 BKN008
     BECMG 2118/2121 02004KT
 

本日は午後から雨、早めに撤収しました。


解散    15:00

1番機  11:10離陸 撤収機  14:00着陸

SF25C JA2330 ファルケ     00Flt.0h00min  
SF25C JA225C ファルケ     05Flt.0h45min
17E   JA2342 タイフーン    00Flt.0h00min
合計                    05Flt.0h45min
04月14日
by OGC at 2024/4/14(日) 18:24:44 No.20240414182148 コメント】  削除 引用
800 x 600 x 110,533バイト
No.1

04月14日
本日の参加者
  会員      17名
  その他     02名


@本日の様子






METAR
RJBK 140000Z VRB03KT 20KM SKC 17/13 Q1022 A3019
RJOB 140000Z 13004KT 080V180 CAVOK 19/11 Q1022
RJOT 140000Z 01005KT CAVOK 18/11 Q1022
RJOA 140000Z 11004KT CAVOK 17/08 Q1022

TAF
RJOB 132307Z 1400/1506 14005KT 9999 FEW030
     TEMPO 1415/1500 3000 BR BCFG FEW000 BKN008 BKN0
RJOT 132305Z 1400/1506 06006KT 9999 FEW030
RJOA 132305Z 1400/1506 13005KT 9999 FEW030
     BECMG 1408/1410 32004KT
     BECMG 1418/1421 08008KT
 

本日は一日通して快晴、訓練日和でした。


解散    18:45

1番機  10:35離陸 撤収機  18:15着陸

SF25C JA2330 ファルケ     00Flt.0h00min  
SF25C JA225C ファルケ     13Flt.3h45min
17E   JA2342 タイフーン    00Flt.0h00min
合計                    13Flt.3h45min
04月07日
by OGC at 2024/4/7(日) 17:13:27 No.20240407171231 コメント】  削除 引用
1000 x 750 x 154,164バイト
No.1

04月07日
本日の参加者
  会員      13名
  その他     00名


@本日の様子






METAR
RJBK 070000Z VRB01KT 15KM FEW030CU BKN/// 15/12 Q1008 A3008
RJOB 070000Z VRB02KT CAVOK 16/09 Q1018
RJOT 070000Z VRB02KT 9999 FEW015 SCT100 BKN120 16/14 Q1018
RJOA 070000Z 12005KT 9999 FEW030 SCT080 BKN/// 15/12 Q1018

TAF
RJOB 062305Z 0700/0806 13004KT 9999 FEW025
     BECMG 0701/0703 16006KT
     BECMG 0709/0711 35004KT
RJOT 062306Z 0700/0806 03005KT 9999 FEW030
     BECMG 0710/0712 22005KT
     BECMG 0715/0718 04007KT
RJOA 062306Z 0700/0806 12005KT 9999 FEW025
     BECMG 0709/0711 32005KT
     BECMG 0721/0800 12006KT
 

本日は穏やかで春らしい一日でした。


解散    17:30

1番機  10:35離陸 撤収機  16:55着陸

SF25C JA2330 ファルケ     00Flt.0h00min  
SF25C JA225C ファルケ     10Flt.3h45min
17E   JA2342 タイフーン    00Flt.0h00min
合計                    10Flt.3h45min
03月31日
by OGC at 2024/3/31(日) 17:46:59 No.20240331174450 コメント】  削除 引用
1000 x 750 x 147,550バイト
No.1

03月31日
本日の参加者
  会員      13名
  その他     00名


@本日の様子






METAR
RJBK 310000Z VRB02KT 10KM FEW025CU 16/10 Q1012 A2990
RJOB 310000Z 19005KT 130V230 CAVOK 17/09 Q101
RJOT 310000Z 25011KT 9999 FEW040 SCT060 20/09 Q1012
RJOA 310000Z 22003KT 170V270 9999 FEW020 BKN030 16/10 Q1013

TAF
RJOB 302305Z 3100/0106 22007KT 9999 FEW025
     BECMG 3108/3110 35004KT
     BECMG 0100/0103 28010KT
RJOT 302305Z 3100/0106 27012KT 9999 FEW025 SCT050
     BECMG 3110/3112 15005KT
     BECMG 0100/0103 27012KT
RJOA 302305Z 3100/0106 27008KT 9999 FEW025 SCT045
 

本日は穏やかな天候で訓練生はTGLやソロフライトなど練習に励んでいました。


解散    18:00


SF25C JA2330 ファルケ     00Flt.0h00min  
SF25C JA225C ファルケ     10Flt.3h55min
17E   JA2342 タイフーン    00Flt.0h00min
合計                    10Flt.3h55min
03月24日
by OGC at 2024/3/24(日) 14:20:20 No.20240324141835 コメント】  削除 引用
1200 x 900 x 179,955バイト <この画像は大きいので別画面で表示します>
No.1

03月24日
本日の参加者
  会員      15名
  その他     00名


@本日の様子






METAR
RJBK 240000Z 06004KT 030V100 4000 -RA BR FEW015ST SCT020ST BKN030CU 11/10 Q1018 A3009
RJOB 240000Z 07006KT 050V120 4500 -RA BR BCFG FEW000 SCT030 BKN080 10/10 Q1018
RJOT 240010Z 05007KT 0500 R26/0600VP2000U -SHRA FG FEW000 SCT001 BKN002 10/10 Q1018 RMK 1ST000 3ST001 5ST002 A3006
RJOA 240007Z 06010KT 2000 R10/2000N SHRA BCFG BR FEW000 SCT008 BKN025 11/10 Q1017 RMK 1ST000 3ST008 5CU025 A3005 FG ALL QUAD

TAF
RJOB 232305Z 2400/2506 04005KT 8000 -RA FEW008 SCT015 BKN025
     TEMPO 2400/2403 1500 RA BR BCFG FEW000 BKN005 BKN008
     TEMPO 2403/2412 3000 -RA BR FEW003 BKN008 BKN015
RJOT 232305Z 2400/2506 07007KT 3000 -RA BR FEW002 SCT005 BKN008
     TEMPO 2400/2406 0500 -RA FG FEW000 SCT002 BKN004
     TEMPO 2406/2415 0700 -RA FG FEW000 SCT003 BKN005
     BECMG 2415/2418 9999 NSW FEW015 BKN035
RJOA 232305Z 2400/2506 09006KT 7000 -RA FEW003 SCT008 BKN015
     TEMPO 2400/2406 1500 -RA BR BCFG FEW000 SCT003 BKN005
     TEMPO 2406/2409 3000 -RA BR FEW001 SCT004 BKN008

 
本日は一日中雨のためフライトはありません。


解散    16:00


SF25C JA2330 ファルケ     00Flt.0h00min  
SF25C JA225C ファルケ     00Flt.0h00min
17E   JA2342 タイフーン    00Flt.0h00min
合計                    00Flt.0h00min
03月17日
by OGC at 2024/3/17(日) 15:39:23 No.20240317153750 コメント】  削除 引用
591 x 443 x 71,183バイト
No.1

03月17日
本日の参加者
  会員      12名
  その他     00名


@本日の様子






METAR
RJBK 170000Z VRB02KT 9999 FEW025CU SCT050SC BKN080AC 12/05 Q1015 A2998
RJOB 170000Z 23003KT 140V310 9999 FEW025 SCT050 BKN070 12/05 Q1014
RJOT 170000Z 15003KT 100V190 9999 FEW030 BKN070 BKN100 14/05 Q1014
RJOA 170000Z 25006KT 210V300 9999 FEW020 SCT045 BKN090 12/06 Q1014

TAF
RJOB 162305Z 1700/1806 22007KT 9999 FEW025 BKN045
     BECMG 1712/1715 34006KT
RJOT 162306Z 1700/1806 27008KT 9000 -RA FEW008 SCT015 BKN025
     BECMG 1803/1806 36009KT
RJOA 162306Z 1700/1806 25007KT 9000 -RA FEW008 SCT015 BKN025
     BECMG 1721/1800 34012KT

 
予想より早く降水が始まり、雨の間を狙ってフライトを行いました。


解散    16:00

1番機  10:25離陸 撤収機  14:45着陸 

SF25C JA2330 ファルケ     00Flt.0h00min  
SF25C JA225C ファルケ     04Flt.1h05min
17E   JA2342 タイフーン    00Flt.0h00min
合計                    04Flt.1h05min
03月10日
by OGC at 2024/3/10(日) 17:39:48 No.20240310173907 コメント】  削除 引用
394 x 295 x 12,006バイト
No.1

03月10日
本日の参加者
  会員      16名
  その他     00名


@本日の様子






METAR
RJBK 100000Z VRB02KT 30KM FEW025CU 03/M01 Q1030 A3042
RJOB 100000Z VRB02KT 9999 FEW020 03/M05 Q1028
RJOT 100000Z 27006KT 9999 FEW030 04/M05 Q1028
RJOA 100000Z 28004KT 9999 FEW025 03/M05 Q1028

TAF
RJOB 092305Z 1000/1106 32006KT 9999 FEW030
     BECMG 1008/1010 03005KT
     BECMG 1100/1103 16005KT
RJOT 092306Z 1000/1106 28008KT 9999 FEW030
     BECMG 1009/1011 15006KT
     BECMG 1100/1103 28008KT
RJOA 092306Z 1000/1106 30005KT 9999 FEW030

 
本日はやや南風の強い一日でした。


解散    18:00

1番機  10:20離陸 撤収機  17:25着陸 

SF25C JA2330 ファルケ     00Flt.0h00min  
SF25C JA225C ファルケ     11Flt.3h50min
17E   JA2342 タイフーン    00Flt.0h00min
合計                    11Flt.3h50min
ホームページへ 全 47 件 [ 1 2 3 4 5 ]

モータースポーツ | 管理者へメール | お知らせ | 一括削除
携帯から使う方法 | ヘルプ | 利用規約 | 違反報告 | 管理パネル



- 無料レンタル掲示板 -